createdAt,value
2017-11-04T00:01:23.387Z,12.30
2017-11-04T00:03:51.029Z,12.20
2017-11-04T00:06:18.814Z,12.27
2017-11-04T00:08:46.415Z,12.93
2017-11-04T00:11:14.048Z,11.77
2017-11-04T00:13:41.640Z,12.13
2017-11-04T00:16:09.242Z,13.40
2017-11-04T00:18:36.900Z,13.13
2017-11-04T00:21:04.710Z,11.93
2017-11-04T00:23:32.329Z,12.77
2017-11-04T00:26:00.058Z,12.13
2017-11-04T00:28:27.875Z,12.30
2017-11-04T00:30:55.570Z,13.40
2017-11-04T00:33:23.240Z,13.60
2017-11-04T00:35:51.385Z,14.80
2017-11-04T00:38:19.102Z,12.57
2017-11-04T00:40:46.665Z,13.20
2017-11-04T00:43:14.250Z,13.47
2017-11-04T00:45:41.851Z,14.00
2017-11-04T00:48:09.398Z,14.10
2017-11-04T00:50:37.162Z,13.30
2017-11-04T00:53:04.751Z,12.37
2017-11-04T00:55:32.438Z,12.80
2017-11-04T00:58:00.318Z,12.60
2017-11-04T01:00:27.964Z,12.63
2017-11-04T01:02:55.764Z,12.30
2017-11-04T01:05:23.386Z,13.50
2017-11-04T01:07:51.193Z,13.00
2017-11-04T01:10:18.819Z,12.63
2017-11-04T01:12:46.367Z,12.30
2017-11-04T01:15:14.024Z,12.87
2017-11-04T01:17:41.576Z,12.40
2017-11-04T01:20:09.164Z,12.10
2017-11-04T01:22:36.845Z,13.47
2017-11-04T01:25:04.457Z,12.27
2017-11-04T01:27:32.026Z,13.30
2017-11-04T01:29:59.687Z,12.00
2017-11-04T01:32:27.303Z,12.50
2017-11-04T01:34:55.073Z,13.57
2017-11-04T01:37:22.871Z,13.07
2017-11-04T01:39:50.561Z,12.83
2017-11-04T01:42:18.195Z,13.07
2017-11-04T01:44:45.777Z,12.83
2017-11-04T01:47:13.411Z,13.60
2017-11-04T01:49:41.043Z,12.10
2017-11-04T01:52:08.733Z,13.00
2017-11-04T01:54:36.406Z,13.10
2017-11-04T01:57:03.968Z,13.17
2017-11-04T01:59:31.559Z,12.37
2017-11-04T02:01:59.181Z,13.00
2017-11-04T02:04:26.792Z,12.17
2017-11-04T02:06:55.302Z,13.10
2017-11-04T02:09:22.922Z,11.83
2017-11-04T02:11:50.586Z,12.00
2017-11-04T02:14:18.357Z,12.90
2017-11-04T02:16:45.983Z,12.07
2017-11-04T02:19:13.529Z,12.10
2017-11-04T02:21:41.164Z,12.10
2017-11-04T02:24:08.787Z,13.87
2017-11-04T02:26:36.400Z,11.20
2017-11-04T02:29:04.007Z,13.23
2017-11-04T02:31:31.707Z,12.73
2017-11-04T02:33:59.351Z,12.73
2017-11-04T02:36:27.249Z,11.30
2017-11-04T02:38:54.916Z,11.30
2017-11-04T02:41:22.884Z,11.35
2017-11-04T02:43:50.524Z,10.85
2017-11-04T02:46:18.167Z,12.10
2017-11-04T02:48:45.729Z,12.50
2017-11-04T02:51:14.388Z,11.90
2017-11-04T02:53:42.006Z,11.77
2017-11-04T02:56:09.839Z,12.17
2017-11-04T02:58:37.484Z,11.73
2017-11-04T03:01:05.140Z,11.40
2017-11-04T03:03:32.754Z,13.17
2017-11-04T03:06:00.285Z,14.13
2017-11-04T03:08:27.922Z,12.60
2017-11-04T03:10:55.690Z,13.33
2017-11-04T03:13:23.258Z,13.60
2017-11-04T03:15:50.881Z,14.60
2017-11-04T03:18:19.104Z,13.90
2017-11-04T03:20:47.618Z,13.57
2017-11-04T03:23:15.653Z,13.50
2017-11-04T03:25:43.247Z,14.43
2017-11-04T03:28:10.884Z,13.10
2017-11-04T03:30:38.608Z,13.30
2017-11-04T03:33:06.182Z,13.57
2017-11-04T03:35:33.946Z,13.00
2017-11-04T03:38:01.581Z,14.13
2017-11-04T03:40:29.174Z,13.60
2017-11-04T03:42:56.756Z,13.40
2017-11-04T03:45:24.362Z,13.03
2017-11-04T03:47:51.964Z,12.20
2017-11-04T03:50:19.575Z,12.10
2017-11-04T03:52:47.199Z,12.80
2017-11-04T03:55:14.808Z,12.40
2017-11-04T03:57:42.405Z,12.87
2017-11-04T04:00:10.027Z,12.97
2017-11-04T04:02:37.668Z,14.13
2017-11-04T04:05:05.443Z,12.60
2017-11-04T04:07:33.102Z,12.60
2017-11-04T04:10:00.662Z,13.20
2017-11-04T04:12:28.425Z,13.70
2017-11-04T04:14:56.015Z,14.27
2017-11-04T04:17:23.662Z,13.13
2017-11-04T04:19:51.415Z,12.60
2017-11-04T04:22:19.011Z,14.63
2017-11-04T04:24:46.586Z,14.77
2017-11-04T04:27:14.168Z,16.47
2017-11-04T04:29:41.806Z,14.33
2017-11-04T04:32:10.227Z,15.20
2017-11-04T04:34:38.006Z,15.80
2017-11-04T04:37:05.790Z,15.37
2017-11-04T04:39:33.478Z,14.83
2017-11-04T04:42:01.089Z,14.93
2017-11-04T04:44:28.751Z,15.57
2017-11-04T04:46:56.457Z,15.60
2017-11-04T04:49:24.060Z,15.50
2017-11-04T04:51:52.693Z,15.07
2017-11-04T04:54:20.826Z,14.77
2017-11-04T04:56:48.431Z,16.10
2017-11-04T04:59:16.039Z,16.33
2017-11-04T05:01:43.898Z,15.47
2017-11-04T05:04:11.690Z,16.47
2017-11-04T05:06:39.447Z,15.50
2017-11-04T05:09:07.047Z,15.10
2017-11-04T05:11:34.642Z,15.07
2017-11-04T05:14:02.261Z,16.60
2017-11-04T05:16:29.898Z,15.40
2017-11-04T05:18:58.274Z,15.50
2017-11-04T05:21:25.859Z,14.57
2017-11-04T05:23:53.567Z,15.07
2017-11-04T05:26:21.438Z,14.73
2017-11-04T05:28:49.192Z,16.23
2017-11-04T05:31:16.813Z,15.70
2017-11-04T05:33:44.453Z,14.77
2017-11-04T05:36:12.398Z,16.20
2017-11-04T05:38:40.181Z,16.47
2017-11-04T05:41:07.790Z,15.13
2017-11-04T05:43:35.335Z,14.20
2017-11-04T05:46:03.188Z,16.40
2017-11-04T05:48:31.173Z,16.10
2017-11-04T05:50:58.808Z,17.10
2017-11-04T05:53:26.424Z,16.23
2017-11-04T05:55:54.167Z,17.00
2017-11-04T05:58:22.531Z,16.47
2017-11-04T06:00:50.195Z,15.77
2017-11-04T06:03:17.931Z,16.20
2017-11-04T06:05:45.722Z,18.43
2017-11-04T06:08:13.358Z,17.47
2017-11-04T06:10:41.753Z,16.17
2017-11-04T06:13:09.716Z,14.80
2017-11-04T06:15:37.467Z,14.50
2017-11-04T06:18:05.266Z,15.10
2017-11-04T06:20:32.940Z,15.33
2017-11-04T06:23:00.630Z,15.97
2017-11-04T06:25:29.014Z,16.33
2017-11-04T06:27:56.726Z,20.23
2017-11-04T06:30:24.486Z,17.57
2017-11-04T06:32:52.092Z,16.67
2017-11-04T06:35:19.714Z,18.40
2017-11-04T06:37:47.546Z,17.13
2017-11-04T06:40:15.189Z,17.20
2017-11-04T06:42:42.851Z,16.63
2017-11-04T06:45:10.470Z,17.20
2017-11-04T06:47:38.153Z,17.43
2017-11-04T06:50:06.700Z,17.60
2017-11-04T06:52:34.359Z,17.83
2017-11-04T06:55:01.963Z,18.30
2017-11-04T06:57:29.583Z,19.87
2017-11-04T06:59:57.721Z,19.20
2017-11-04T07:02:25.351Z,18.03
2017-11-04T07:04:53.039Z,19.40
2017-11-04T07:07:20.691Z,17.10
2017-11-04T07:09:48.370Z,18.30
2017-11-04T07:12:16.219Z,18.90
2017-11-04T07:14:43.770Z,18.67
2017-11-04T07:17:11.488Z,18.87
2017-11-04T07:19:39.200Z,17.93
2017-11-04T07:22:06.787Z,19.20
2017-11-04T07:24:34.435Z,20.30
2017-11-04T07:27:02.062Z,17.33
2017-11-04T07:29:29.705Z,19.20
2017-11-04T07:31:57.335Z,19.73
2017-11-04T07:34:24.948Z,18.67
2017-11-04T07:36:52.879Z,17.83
2017-11-04T07:39:20.506Z,20.10
2017-11-04T07:41:48.407Z,17.90
2017-11-04T07:44:16.064Z,18.50
2017-11-04T07:46:43.725Z,18.80
2017-11-04T07:49:11.310Z,18.37
2017-11-04T07:51:38.911Z,18.30
2017-11-04T07:54:06.593Z,18.67
2017-11-04T07:56:35.531Z,16.97
2017-11-04T07:59:03.914Z,15.80
2017-11-04T08:01:31.606Z,16.50
2017-11-04T08:03:59.232Z,17.27
2017-11-04T08:06:26.852Z,17.30
2017-11-04T08:08:54.544Z,16.57
2017-11-04T08:11:23.065Z,17.83
2017-11-04T08:13:50.714Z,16.17
2017-11-04T08:16:19.151Z,17.40
2017-11-04T08:18:46.753Z,16.47
2017-11-04T08:21:14.392Z,16.80
2017-11-04T08:23:42.019Z,18.10
2017-11-04T08:26:09.697Z,17.30
2017-11-04T08:28:37.906Z,15.87
2017-11-04T08:31:05.690Z,15.70
2017-11-04T08:33:33.266Z,15.20
2017-11-04T08:36:00.861Z,16.30
2017-11-04T08:38:28.530Z,15.00
2017-11-04T08:40:56.179Z,13.37
2017-11-04T08:43:23.802Z,14.80
2017-11-04T08:45:51.450Z,13.67
2017-11-04T08:48:19.056Z,12.60
2017-11-04T08:50:46.667Z,14.47
2017-11-04T08:53:14.281Z,14.63
2017-11-04T08:55:42.010Z,13.40
2017-11-04T08:58:09.601Z,15.40
2017-11-04T09:00:37.914Z,14.63
2017-11-04T09:03:06.359Z,14.43
2017-11-04T09:05:33.968Z,15.23
2017-11-04T09:08:01.701Z,14.53
2017-11-04T09:10:29.477Z,16.63
2017-11-04T09:12:57.118Z,14.57
2017-11-04T09:15:25.744Z,14.30
2017-11-04T09:17:53.727Z,13.37
2017-11-04T09:20:22.388Z,14.20
2017-11-04T09:22:50.188Z,14.33
2017-11-04T09:25:17.783Z,14.83
2017-11-04T09:27:45.423Z,14.80
2017-11-04T09:30:13.100Z,14.60
2017-11-04T09:32:41.064Z,14.80
2017-11-04T09:35:08.914Z,14.53
2017-11-04T09:37:36.924Z,12.93
2017-11-04T09:40:04.504Z,13.50
2017-11-04T09:42:32.164Z,14.13
2017-11-04T09:44:59.853Z,15.50
2017-11-04T09:47:27.466Z,14.30
2017-11-04T09:49:55.062Z,14.07
2017-11-04T09:52:22.787Z,14.80
2017-11-04T09:54:50.401Z,17.00
2017-11-04T09:57:18.001Z,14.13
2017-11-04T09:59:45.618Z,15.00
2017-11-04T10:02:13.270Z,15.80
2017-11-04T10:04:40.871Z,14.37
2017-11-04T10:07:08.523Z,14.43
2017-11-04T10:09:36.202Z,14.50
2017-11-04T10:12:03.865Z,14.90
2017-11-04T10:14:31.530Z,14.17
2017-11-04T10:16:59.165Z,15.17
2017-11-04T10:19:26.779Z,15.20
2017-11-04T10:21:54.403Z,16.80
2017-11-04T10:24:22.003Z,14.90
2017-11-04T10:26:49.751Z,14.00
2017-11-04T10:29:17.586Z,13.90
2017-11-04T10:31:45.598Z,15.23
2017-11-04T10:34:13.263Z,14.43
2017-11-04T10:36:41.558Z,14.73
2017-11-04T10:39:09.598Z,12.90
2017-11-04T10:41:37.253Z,13.90
2017-11-04T10:44:04.856Z,16.60
2017-11-04T10:46:32.552Z,15.37
2017-11-04T10:49:00.370Z,14.17
2017-11-04T10:51:27.984Z,11.87
2017-11-04T10:53:55.672Z,15.30
2017-11-04T10:56:23.338Z,14.00
2017-11-04T10:58:50.983Z,14.10
2017-11-04T11:01:18.622Z,15.73
2017-11-04T11:03:46.465Z,17.63
2017-11-04T11:06:14.133Z,16.87
2017-11-04T11:08:41.788Z,14.57
2017-11-04T11:11:10.516Z,11.50
2017-11-04T11:13:38.303Z,15.70
2017-11-04T11:16:06.127Z,15.07
2017-11-04T11:18:33.757Z,14.50
2017-11-04T11:21:01.377Z,13.77
2017-11-04T11:23:29.236Z,12.70
2017-11-04T11:25:56.844Z,14.00
2017-11-04T11:28:24.642Z,14.80
2017-11-04T11:30:52.337Z,15.40
2017-11-04T11:33:20.467Z,11.20
2017-11-04T11:35:48.258Z,12.43
2017-11-04T11:38:16.038Z,13.20
2017-11-04T11:40:43.699Z,14.23
2017-11-04T11:43:11.713Z,14.47
2017-11-04T11:45:39.612Z,14.00
2017-11-04T11:48:07.425Z,13.80
2017-11-04T11:50:35.150Z,13.30
2017-11-04T11:53:02.859Z,13.70
2017-11-04T11:55:33.328Z,13.63
2017-11-04T12:01:31.781Z,14.10
2017-11-04T12:03:59.548Z,13.90
2017-11-04T12:06:27.185Z,12.80
2017-11-04T12:08:54.805Z,13.13
2017-11-04T12:11:22.428Z,13.63
2017-11-04T12:13:49.959Z,13.03
2017-11-04T12:16:18.186Z,11.93
2017-11-04T12:18:45.729Z,12.20
2017-11-04T12:21:13.355Z,10.27
2017-11-04T12:23:41.187Z,11.40
2017-11-04T12:26:08.738Z,10.93
2017-11-04T12:28:36.486Z,11.43
2017-11-04T12:31:04.230Z,13.07
2017-11-04T12:33:31.843Z,14.60
2017-11-04T12:35:59.502Z,14.00
2017-11-04T12:38:27.154Z,13.70
2017-11-04T12:40:54.940Z,14.50
2017-11-04T12:43:22.778Z,13.67
2017-11-04T12:45:50.372Z,13.23
2017-11-04T12:48:17.947Z,14.17
2017-11-04T12:50:45.722Z,14.00
2017-11-04T12:53:13.435Z,13.07
2017-11-04T12:55:41.043Z,13.03
2017-11-04T12:58:08.803Z,15.13
2017-11-04T13:00:36.414Z,13.00
2017-11-04T13:03:04.080Z,13.13
2017-11-04T13:05:31.678Z,12.80
2017-11-04T13:07:59.482Z,12.60
2017-11-04T13:10:27.096Z,13.83
2017-11-04T13:12:54.756Z,13.00
2017-11-04T13:15:22.422Z,11.70
2017-11-04T13:17:50.215Z,11.70
2017-11-04T13:20:18.010Z,11.50
2017-11-04T13:22:46.120Z,10.10
2017-11-04T13:25:13.720Z,10.00
2017-11-04T13:27:41.540Z,10.20
2017-11-04T13:30:09.811Z,11.10
2017-11-04T13:32:37.695Z,11.13
2017-11-04T13:35:05.311Z,16.00
2017-11-04T13:37:33.979Z,15.47
2017-11-04T13:40:02.362Z,11.60
2017-11-04T13:42:29.955Z,12.67
2017-11-04T13:44:58.058Z,11.70
2017-11-04T13:47:25.763Z,12.30
2017-11-04T13:49:53.705Z,11.13
2017-11-04T13:52:21.309Z,13.07
2017-11-04T13:54:49.572Z,12.23
2017-11-04T13:57:17.429Z,11.57
2017-11-04T13:59:45.050Z,12.87
2017-11-04T14:02:12.734Z,11.90
2017-11-04T14:04:40.540Z,13.27
2017-11-04T14:07:08.167Z,11.07
2017-11-04T14:09:35.795Z,13.67
2017-11-04T14:12:03.401Z,14.50
2017-11-04T14:14:31.026Z,13.90
2017-11-04T14:16:58.640Z,14.67
2017-11-04T14:19:27.032Z,14.43
2017-11-04T14:21:54.830Z,14.90
2017-11-04T14:24:22.621Z,15.10
2017-11-04T14:26:51.078Z,15.80
2017-11-04T14:29:18.825Z,16.40
2017-11-04T14:31:46.441Z,17.07
2017-11-04T14:34:14.115Z,17.17
2017-11-04T14:36:41.762Z,16.77
2017-11-04T14:39:09.568Z,16.13
2017-11-04T14:41:37.463Z,15.50
2017-11-04T14:44:05.128Z,22.70
2017-11-04T14:46:33.697Z,18.87
2017-11-04T14:49:01.270Z,18.37
2017-11-04T14:51:28.910Z,16.03
2017-11-04T14:53:56.777Z,19.57
2017-11-04T14:56:24.378Z,17.60
2017-11-04T14:58:52.164Z,18.20
2017-11-04T15:01:19.795Z,18.83
2017-11-04T15:03:47.782Z,20.23
2017-11-04T15:06:15.482Z,20.70
2017-11-04T15:08:43.231Z,20.57
2017-11-04T15:11:10.795Z,23.03
2017-11-04T15:13:38.513Z,23.10
2017-11-04T15:16:06.160Z,23.43
2017-11-04T15:18:33.867Z,23.07
2017-11-04T15:21:01.547Z,25.80
2017-11-04T15:23:29.234Z,22.93
2017-11-04T15:25:56.982Z,24.77
2017-11-04T15:28:24.641Z,21.57
2017-11-04T15:30:52.210Z,21.00
2017-11-04T15:33:20.025Z,23.60
2017-11-04T15:35:47.611Z,21.73
2017-11-04T15:38:15.311Z,24.43
2017-11-04T15:40:42.865Z,28.80
2017-11-04T15:43:10.608Z,29.90
2017-11-04T15:45:38.824Z,30.60
2017-11-04T15:48:06.381Z,27.60
2017-11-04T15:50:34.086Z,28.53
2017-11-04T15:53:01.755Z,31.07
2017-11-04T15:55:29.347Z,28.53
2017-11-04T15:57:56.987Z,30.40
2017-11-04T16:00:25.007Z,30.17
2017-11-04T16:02:52.770Z,28.87
2017-11-04T16:05:20.562Z,32.97
2017-11-04T16:07:48.231Z,46.70
2017-11-04T16:10:16.491Z,41.23
2017-11-04T16:12:44.320Z,38.90
2017-11-04T16:15:11.991Z,39.47
2017-11-04T16:17:39.832Z,33.37
2017-11-04T16:20:07.611Z,36.67
2017-11-04T16:22:35.251Z,33.50
2017-11-04T16:25:02.829Z,31.60
2017-11-04T16:27:30.457Z,32.80
2017-11-04T16:29:58.202Z,38.23
2017-11-04T16:32:26.636Z,37.70
2017-11-04T16:34:54.223Z,41.90
2017-11-04T16:37:22.070Z,49.20
2017-11-04T16:39:49.685Z,47.70
2017-11-04T16:42:17.274Z,50.93
2017-11-04T16:44:44.990Z,52.67
2017-11-04T16:47:12.591Z,49.70
2017-11-04T16:49:40.238Z,51.70
2017-11-04T16:52:07.883Z,47.23
2017-11-04T16:54:35.499Z,42.13
2017-11-04T16:57:03.114Z,41.43
2017-11-04T16:59:30.870Z,38.10
2017-11-04T17:01:58.517Z,35.23
2017-11-04T17:04:26.124Z,34.00
2017-11-04T17:06:53.745Z,38.70
2017-11-04T17:09:21.427Z,38.10
2017-11-04T17:11:49.275Z,41.40
2017-11-04T17:14:16.880Z,41.10
2017-11-04T17:16:44.587Z,54.50
2017-11-04T17:19:12.137Z,51.57
2017-11-04T17:21:39.791Z,69.77
2017-11-04T17:24:07.433Z,68.97
2017-11-04T17:26:35.099Z,76.57
2017-11-04T17:29:02.750Z,71.07
2017-11-04T17:31:30.398Z,71.27
2017-11-04T17:33:58.150Z,84.07
2017-11-04T17:36:25.818Z,72.70
2017-11-04T17:38:53.866Z,69.30
2017-11-04T17:41:22.567Z,65.43
2017-11-04T17:43:50.214Z,64.50
2017-11-04T17:46:17.950Z,66.87
2017-11-04T17:48:45.633Z,62.87
2017-11-04T17:51:13.280Z,66.87
2017-11-04T17:53:40.925Z,67.60
2017-11-04T17:56:08.551Z,68.83
2017-11-04T17:58:36.143Z,70.40
2017-11-04T18:01:03.774Z,72.40
2017-11-04T18:03:31.544Z,73.40
2017-11-04T18:05:59.266Z,77.57
2017-11-04T18:08:27.019Z,79.37
2017-11-04T18:10:54.581Z,81.13
2017-11-04T18:13:22.957Z,86.50
2017-11-04T18:15:50.607Z,81.57
2017-11-04T18:18:19.030Z,82.03
2017-11-04T18:20:46.737Z,77.67
2017-11-04T18:23:14.943Z,78.17
2017-11-04T18:25:42.581Z,76.20
2017-11-04T18:28:10.210Z,69.47
2017-11-04T18:30:37.815Z,58.47
2017-11-04T18:33:05.424Z,57.13
2017-11-04T18:35:33.087Z,53.10
2017-11-04T18:38:00.715Z,58.00
2017-11-04T18:40:28.574Z,56.53
2017-11-04T18:42:56.250Z,57.77
2017-11-04T18:45:24.044Z,60.83
2017-11-04T18:47:51.743Z,67.33
2017-11-04T18:50:19.404Z,67.57
2017-11-04T18:52:47.086Z,68.23
2017-11-04T18:55:14.746Z,76.67
2017-11-04T18:57:42.330Z,73.63
2017-11-04T19:00:10.564Z,72.90
2017-11-04T19:02:38.189Z,74.93
2017-11-04T19:05:06.065Z,78.83
2017-11-04T19:07:33.928Z,81.00
2017-11-04T19:10:01.751Z,100.13
2017-11-04T19:12:29.403Z,105.10
2017-11-04T19:14:57.932Z,116.53
2017-11-04T19:17:25.622Z,107.20
2017-11-04T19:19:53.556Z,109.83
2017-11-04T19:22:21.218Z,116.70
2017-11-04T19:24:48.988Z,123.67
2017-11-04T19:27:16.606Z,100.23
2017-11-04T19:29:44.217Z,97.37
2017-11-04T19:32:11.918Z,99.77
2017-11-04T19:34:39.484Z,91.87
2017-11-04T19:37:07.054Z,97.60
2017-11-04T19:39:34.689Z,96.00
2017-11-04T19:42:02.279Z,96.70
2017-11-04T19:44:29.946Z,97.60
2017-11-04T19:46:57.659Z,102.20
2017-11-04T19:49:25.385Z,114.30
2017-11-04T19:51:53.215Z,110.00
2017-11-04T19:54:20.864Z,108.37
2017-11-04T19:56:49.087Z,106.10
2017-11-04T19:59:16.757Z,119.05
2017-11-04T20:01:44.387Z,118.43
2017-11-04T20:04:11.989Z,114.65
2017-11-04T20:06:39.669Z,116.60
2017-11-04T20:09:07.335Z,98.32
2017-11-04T20:11:35.238Z,119.75
2017-11-04T20:14:03.224Z,108.45
2017-11-04T20:16:30.841Z,99.85
2017-11-04T20:18:58.434Z,120.93
2017-11-04T20:21:26.115Z,107.82
2017-11-04T20:23:55.059Z,100.97
2017-11-04T20:26:22.694Z,76.20
2017-11-04T20:28:50.267Z,120.20
2017-11-04T20:31:17.919Z,116.12
2017-11-04T20:33:46.027Z,121.32
2017-11-04T20:36:13.948Z,121.07
2017-11-04T20:38:41.649Z,116.43
2017-11-04T20:41:09.274Z,115.65
2017-11-04T20:43:37.865Z,115.93
2017-11-04T20:46:05.731Z,122.17
2017-11-04T20:48:33.283Z,124.40
2017-11-04T20:51:00.963Z,92.73
2017-11-04T20:53:28.553Z,69.63
2017-11-04T20:55:56.312Z,80.87
2017-11-04T20:58:24.098Z,96.63
2017-11-04T21:00:51.893Z,90.80
2017-11-04T21:03:19.524Z,81.60
2017-11-04T21:05:47.363Z,74.28
2017-11-04T21:08:15.432Z,109.70
2017-11-04T21:10:43.409Z,80.15
2017-11-04T21:13:11.059Z,97.77
2017-11-04T21:15:38.694Z,58.10
2017-11-04T21:18:06.488Z,51.50
2017-11-04T21:20:34.315Z,55.00
2017-11-04T21:23:03.036Z,50.08
2017-11-04T21:25:30.856Z,58.25
2017-11-04T21:27:58.574Z,55.23
2017-11-04T21:30:26.282Z,59.10
2017-11-04T21:32:53.816Z,57.78
2017-11-04T21:35:21.424Z,65.78
2017-11-04T21:37:49.131Z,62.45
2017-11-04T21:40:16.808Z,54.85
2017-11-04T21:42:44.405Z,59.20
2017-11-04T21:45:12.107Z,68.85
2017-11-04T21:47:39.710Z,53.55
2017-11-04T21:50:15.651Z,54.60
2017-11-04T21:52:47.876Z,66.53
2017-11-04T21:55:18.104Z,74.72
2017-11-04T21:57:46.265Z,76.43
2017-11-04T22:00:13.991Z,74.90
2017-11-04T22:02:41.953Z,71.85
2017-11-04T22:05:09.810Z,74.87
2017-11-04T22:07:37.466Z,83.80
2017-11-04T22:10:05.091Z,86.90
2017-11-04T22:12:32.702Z,86.43
2017-11-04T22:15:00.309Z,88.90
2017-11-04T22:17:27.930Z,91.80
2017-11-04T22:19:55.545Z,87.15
2017-11-04T22:22:23.229Z,85.27
2017-11-04T22:24:50.901Z,76.93
2017-11-04T22:27:18.553Z,76.68
2017-11-04T22:29:46.235Z,73.85
2017-11-04T22:32:13.860Z,71.62
2017-11-04T22:34:41.494Z,69.70
2017-11-04T22:37:09.155Z,71.27
2017-11-04T22:39:36.837Z,67.28
2017-11-04T22:42:04.635Z,68.07
2017-11-04T22:44:32.447Z,66.10
2017-11-04T22:47:00.044Z,63.38
2017-11-04T22:49:27.656Z,63.13
2017-11-04T22:51:55.517Z,63.38
2017-11-04T22:54:23.196Z,59.33
2017-11-04T22:56:51.035Z,59.22
2017-11-04T22:59:18.621Z,57.78
2017-11-04T23:01:46.319Z,54.90
2017-11-04T23:04:13.900Z,55.78
2017-11-04T23:06:41.733Z,57.45
2017-11-04T23:09:09.372Z,56.40
2017-11-04T23:11:36.954Z,55.75
2017-11-04T23:14:04.592Z,54.72
2017-11-04T23:16:32.290Z,57.00
2017-11-04T23:18:59.960Z,54.55
2017-11-04T23:21:27.531Z,50.20
2017-11-04T23:23:55.160Z,49.80
2017-11-04T23:26:23.004Z,49.90
2017-11-04T23:28:50.616Z,50.30
2017-11-04T23:31:18.285Z,49.83
2017-11-04T23:33:45.957Z,47.45
2017-11-04T23:36:13.582Z,50.63
2017-11-04T23:38:41.222Z,48.33
2017-11-04T23:41:09.778Z,46.30
2017-11-04T23:43:37.487Z,45.55
2017-11-04T23:46:05.135Z,44.70
2017-11-04T23:48:32.975Z,47.65
2017-11-04T23:51:00.641Z,49.53
2017-11-04T23:53:28.295Z,49.03
2017-11-04T23:55:55.966Z,49.70
2017-11-04T23:58:23.621Z,50.38
